createdAt,value
2019-04-28T00:00:46.309Z,96869.55
2019-04-28T00:03:18.495Z,96869.65
2019-04-28T00:05:51.394Z,96864.86
2019-04-28T00:08:22.451Z,96872.42
2019-04-28T00:10:53.598Z,96867.06
2019-04-28T00:13:25.793Z,96860.27
2019-04-28T00:15:58.484Z,96862.05
2019-04-28T00:18:31.543Z,96858.31
2019-04-28T00:21:21.338Z,96861.02
2019-04-28T00:24:12.689Z,96863.77
2019-04-28T00:27:03.839Z,96859.98
2019-04-28T00:29:40.345Z,96865.26
2019-04-28T00:32:07.755Z,96869.31
2019-04-28T00:34:41.050Z,96860.71
2019-04-28T00:37:26.258Z,96856.69
2019-04-28T00:39:58.312Z,96856.59
2019-04-28T00:42:31.322Z,96852.81
2019-04-28T00:45:02.112Z,96850.77
2019-04-28T00:47:33.791Z,96850.14
2019-04-28T00:50:07.479Z,96843.91
2019-04-28T00:52:38.591Z,96837.72
2019-04-28T00:55:11.039Z,96845.03
2019-04-28T00:57:42.153Z,96844.02
2019-04-28T01:00:16.418Z,96849.20
2019-04-28T01:02:47.987Z,96853.33
2019-04-28T01:05:21.135Z,96845.23
2019-04-28T01:07:53.033Z,96833.31
2019-04-28T01:10:25.741Z,96834.62
2019-04-28T01:12:56.772Z,96834.28
2019-04-28T01:15:41.031Z,96833.73
2019-04-28T01:18:37.329Z,96833.91
2019-04-28T01:21:08.384Z,96831.73
2019-04-28T01:23:40.255Z,96835.59
2019-04-28T01:26:11.431Z,96834.62
2019-04-28T01:28:42.704Z,96829.42
2019-04-28T01:31:21.475Z,96830.16
2019-04-28T01:34:11.615Z,96835.73
2019-04-28T01:36:42.602Z,96832.06
2019-04-28T01:39:13.684Z,96845.11
2019-04-28T01:41:44.947Z,96840.10
2019-04-28T01:44:16.054Z,96838.15
2019-04-28T01:46:49.500Z,96844.11
2019-04-28T01:49:20.254Z,96839.59
2019-04-28T01:52:01.463Z,96844.47
2019-04-28T01:54:32.500Z,96847.91
2019-04-28T01:57:03.992Z,96850.20
2019-04-28T01:59:36.308Z,96855.56
2019-04-28T02:02:09.967Z,96854.44
2019-04-28T02:04:40.763Z,96855.78
2019-04-28T02:07:11.875Z,96851.08
2019-04-28T02:09:42.940Z,96856.03
2019-04-28T02:12:14.285Z,96854.13
2019-04-28T02:14:45.397Z,96849.64
2019-04-28T02:17:16.663Z,96850.14
2019-04-28T02:19:47.659Z,96848.89
2019-04-28T02:22:37.686Z,96847.58
2019-04-28T02:25:09.964Z,96846.48
2019-04-28T02:27:41.064Z,96852.09
2019-04-28T02:30:13.970Z,96848.70
2019-04-28T02:32:45.061Z,96852.70
2019-04-28T02:35:16.224Z,96855.32
2019-04-28T02:37:47.281Z,96847.86
2019-04-28T02:40:20.777Z,96843.98
2019-04-28T02:42:52.142Z,96838.86
2019-04-28T02:45:23.624Z,96843.33
2019-04-28T02:47:58.074Z,96839.16
2019-04-28T02:50:50.954Z,96839.03
2019-04-28T02:53:25.708Z,96839.99
2019-04-28T02:55:56.890Z,96837.98
2019-04-28T02:58:27.973Z,96836.09
2019-04-28T03:01:06.804Z,96835.55
2019-04-28T03:03:31.975Z,96836.03
2019-04-28T03:06:03.279Z,96834.30
2019-04-28T03:08:34.341Z,96836.09
2019-04-28T03:11:06.614Z,96831.49
2019-04-28T03:13:37.692Z,96824.58
2019-04-28T03:16:10.835Z,96826.02
2019-04-28T03:18:41.597Z,96823.56
2019-04-28T03:21:12.669Z,96819.06
2019-04-28T03:23:43.688Z,96822.93
2019-04-28T03:26:31.360Z,96825.48
2019-04-28T03:29:20.551Z,96829.55
2019-04-28T03:32:15.519Z,96828.59
2019-04-28T03:34:54.742Z,96821.62
2019-04-28T03:37:26.024Z,96826.98
2019-04-28T03:39:57.131Z,96820.48
2019-04-28T03:42:28.145Z,96821.02
2019-04-28T03:45:01.121Z,96817.28
2019-04-28T03:47:32.650Z,96815.25
2019-04-28T03:50:03.807Z,96817.44
2019-04-28T03:52:35.129Z,96813.39
2019-04-28T03:55:06.995Z,96809.64
2019-04-28T03:57:38.042Z,96812.81
2019-04-28T04:00:11.022Z,96806.20
2019-04-28T04:02:42.281Z,96810.95
2019-04-28T04:05:13.479Z,96812.75
2019-04-28T04:07:44.853Z,96812.69
2019-04-28T04:10:51.983Z,96816.56
2019-04-28T04:13:41.815Z,96812.99
2019-04-28T04:16:34.689Z,96817.02
2019-04-28T04:19:10.441Z,96817.33
2019-04-28T04:21:40.929Z,96814.11
2019-04-28T04:24:12.450Z,96813.28
2019-04-28T04:26:43.473Z,96809.98
2019-04-28T04:29:14.554Z,96808.88
2019-04-28T04:31:46.041Z,96811.00
2019-04-28T04:34:17.069Z,96813.23
2019-04-28T04:36:50.738Z,96812.79
2019-04-28T04:39:21.114Z,96816.64
2019-04-28T04:41:53.167Z,96811.67
2019-04-28T04:44:24.159Z,96814.71
2019-04-28T04:46:55.159Z,96815.00
2019-04-28T04:49:26.349Z,96820.11
2019-04-28T04:51:57.397Z,96823.42
2019-04-28T04:54:32.097Z,96822.66
2019-04-28T04:57:01.174Z,96822.55
2019-04-28T04:59:35.016Z,96825.06
2019-04-28T05:02:33.003Z,96823.78
2019-04-28T05:05:18.118Z,96831.79
2019-04-28T05:10:21.724Z,96831.98
2019-04-28T05:12:54.093Z,96834.36
2019-04-28T05:15:25.091Z,96840.88
2019-04-28T05:17:56.097Z,96840.37
2019-04-28T05:20:27.168Z,96839.36
2019-04-28T05:23:21.688Z,96839.73
2019-04-28T05:25:53.438Z,96841.95
2019-04-28T05:28:24.433Z,96838.73
2019-04-28T05:30:55.449Z,96835.80
2019-04-28T05:33:33.352Z,96840.20
2019-04-28T05:36:03.149Z,96841.93
2019-04-28T05:38:34.337Z,96836.97
2019-04-28T05:41:07.155Z,96834.06
2019-04-28T05:43:38.219Z,96832.45
2019-04-28T05:46:10.629Z,96841.33
2019-04-28T05:48:51.291Z,96839.08
2019-04-28T05:51:24.430Z,96840.51
2019-04-28T05:54:06.688Z,96840.66
2019-04-28T05:56:42.496Z,96842.28
2019-04-28T05:59:19.466Z,96847.77
2019-04-28T06:02:15.229Z,96848.77
2019-04-28T06:04:46.196Z,96852.52
2019-04-28T06:07:36.110Z,96851.91
2019-04-28T06:10:07.819Z,96847.20
2019-04-28T06:12:40.587Z,96855.70
2019-04-28T06:15:16.946Z,96856.31
2019-04-28T06:17:49.777Z,96850.39
2019-04-28T06:20:20.814Z,96858.36
2019-04-28T06:22:52.152Z,96861.23
2019-04-28T06:25:23.160Z,96868.17
2019-04-28T06:27:54.219Z,96865.72
2019-04-28T06:30:25.645Z,96876.56
2019-04-28T06:33:07.144Z,96867.34
2019-04-28T06:35:29.418Z,96865.47
2019-04-28T06:38:00.722Z,96863.52
2019-04-28T06:40:31.800Z,96863.78
2019-04-28T06:43:02.802Z,96870.91
2019-04-28T06:45:33.854Z,96862.80
2019-04-28T06:48:04.839Z,96867.64
2019-04-28T06:50:37.084Z,96866.80
2019-04-28T06:53:08.082Z,96863.63
2019-04-28T06:55:39.652Z,96871.23
2019-04-28T06:58:10.706Z,96871.29
2019-04-28T07:00:41.818Z,96874.70
2019-04-28T07:03:22.694Z,96874.68
2019-04-28T07:05:45.773Z,96873.59
2019-04-28T07:08:17.097Z,96871.38
2019-04-28T07:10:48.109Z,96871.29
2019-04-28T07:13:20.725Z,96877.22
2019-04-28T07:15:51.870Z,96872.44
2019-04-28T07:18:22.923Z,96871.73
2019-04-28T07:21:02.522Z,96881.41
2019-04-28T07:23:34.722Z,96871.81
2019-04-28T07:26:05.861Z,96871.75
2019-04-28T07:28:37.227Z,96872.13
2019-04-28T07:31:08.275Z,96871.23
2019-04-28T07:33:39.417Z,96876.37
2019-04-28T07:36:10.445Z,96872.02
2019-04-28T07:38:41.885Z,96875.83
2019-04-28T07:41:12.959Z,96877.53
2019-04-28T07:43:43.962Z,96879.28
2019-04-28T07:46:15.101Z,96879.88
2019-04-28T07:48:46.334Z,96878.73
2019-04-28T07:51:18.034Z,96873.78
2019-04-28T07:53:56.229Z,96867.67
2019-04-28T07:56:27.216Z,96876.63
2019-04-28T07:58:58.279Z,96869.97
2019-04-28T08:01:30.365Z,96865.66
2019-04-28T08:04:01.362Z,96872.08
2019-04-28T08:06:32.456Z,96871.71
2019-04-28T08:09:05.633Z,96873.66
2019-04-28T08:11:38.597Z,96873.30
2019-04-28T08:14:09.594Z,96870.52
2019-04-28T08:16:40.612Z,96873.15
2019-04-28T08:19:11.648Z,96873.97
2019-04-28T08:21:43.008Z,96876.50
2019-04-28T08:24:14.018Z,96879.62
2019-04-28T08:26:45.278Z,96878.84
2019-04-28T08:29:16.412Z,96883.58
2019-04-28T08:32:03.418Z,96882.27
2019-04-28T08:34:34.412Z,96881.38
2019-04-28T08:37:05.488Z,96877.82
2019-04-28T08:39:37.924Z,96883.61
2019-04-28T08:42:09.292Z,96872.45
2019-04-28T08:44:40.407Z,96881.56
2019-04-28T08:47:11.575Z,96878.84
2019-04-28T08:49:42.568Z,96877.62
2019-04-28T08:52:13.586Z,96878.31
2019-04-28T08:54:44.911Z,96880.35
2019-04-28T08:57:16.284Z,96878.41
2019-04-28T08:59:47.453Z,96871.04
2019-04-28T09:02:18.603Z,96885.94
2019-04-28T09:04:49.637Z,96876.72
2019-04-28T09:07:21.007Z,96878.52
2019-04-28T09:09:52.002Z,96871.44
2019-04-28T09:12:23.031Z,96875.58
2019-04-28T09:14:54.187Z,96883.17
2019-04-28T09:17:25.383Z,96880.53
2019-04-28T09:19:56.406Z,96880.84
2019-04-28T09:22:27.494Z,96873.66
2019-04-28T09:24:58.644Z,96872.33
2019-04-28T09:27:30.079Z,96876.07
2019-04-28T09:30:01.086Z,96874.73
2019-04-28T09:32:32.330Z,96871.43
2019-04-28T09:35:03.477Z,96869.56
2019-04-28T09:37:34.514Z,96863.06
2019-04-28T09:40:13.842Z,96870.98
2019-04-28T09:43:02.540Z,96864.94
2019-04-28T09:45:40.092Z,96866.34
2019-04-28T09:48:11.140Z,96857.77
2019-04-28T09:50:42.182Z,96866.80
2019-04-28T09:53:13.225Z,96858.72
2019-04-28T09:55:44.257Z,96855.59
2019-04-28T09:58:15.266Z,96861.27
2019-04-28T10:00:46.369Z,96860.69
2019-04-28T10:03:17.436Z,96855.38
2019-04-28T10:05:48.981Z,96853.28
2019-04-28T10:08:19.994Z,96850.83
2019-04-28T10:10:51.102Z,96858.01
2019-04-28T10:13:22.115Z,96856.44
2019-04-28T10:15:54.846Z,96863.33
2019-04-28T10:18:26.887Z,96863.47
2019-04-28T10:20:57.881Z,96861.76
2019-04-28T10:23:28.911Z,96871.91
2019-04-28T10:26:00.001Z,96881.17
2019-04-28T10:28:31.093Z,96882.92
2019-04-28T10:31:02.098Z,96883.04
2019-04-28T10:33:33.133Z,96895.17
2019-04-28T10:36:04.295Z,96897.25
2019-04-28T10:38:36.286Z,96897.47
2019-04-28T10:41:12.648Z,96903.34
2019-04-28T10:43:43.731Z,96908.48
2019-04-28T10:46:14.882Z,96907.55
2019-04-28T10:48:46.326Z,96903.30
2019-04-28T10:51:17.357Z,96912.17
2019-04-28T10:53:48.411Z,96914.90
2019-04-28T10:56:19.506Z,96914.70
2019-04-28T10:58:53.222Z,96913.42
2019-04-28T11:01:24.224Z,96909.19
2019-04-28T11:03:57.138Z,96904.24
2019-04-28T11:06:28.402Z,96910.33
2019-04-28T11:09:30.138Z,96910.58
2019-04-28T11:11:52.038Z,96910.20
2019-04-28T11:14:23.106Z,96904.13
2019-04-28T11:16:54.693Z,96897.47
2019-04-28T11:19:25.719Z,96901.90
2019-04-28T11:21:57.869Z,96898.03
2019-04-28T11:24:29.169Z,96903.40
2019-04-28T11:27:00.294Z,96906.85
2019-04-28T11:29:31.393Z,96901.41
2019-04-28T11:32:02.532Z,96905.55
2019-04-28T11:34:46.810Z,96905.25
2019-04-28T11:37:17.843Z,96906.17
2019-04-28T11:39:49.158Z,96901.89
2019-04-28T11:42:20.516Z,96906.81
2019-04-28T11:44:51.643Z,96904.55
2019-04-28T11:47:23.923Z,96902.92
2019-04-28T11:49:55.014Z,96903.04
2019-04-28T11:52:26.221Z,96901.95
2019-04-28T11:54:57.363Z,96900.04
2019-04-28T11:57:28.592Z,96894.14
2019-04-28T11:59:59.767Z,96879.95
2019-04-28T12:02:30.897Z,96875.09
2019-04-28T12:05:03.578Z,96871.23
2019-04-28T12:07:34.694Z,96871.31
2019-04-28T12:10:12.555Z,96871.39
2019-04-28T12:13:11.637Z,96868.66
2019-04-28T12:15:51.801Z,96875.52
2019-04-28T12:18:42.699Z,96881.02
2019-04-28T12:21:13.774Z,96872.00
2019-04-28T12:23:45.182Z,96868.87
2019-04-28T12:26:16.283Z,96870.82
2019-04-28T12:28:47.331Z,96869.62
2019-04-28T12:31:18.434Z,96870.81
2019-04-28T12:33:50.462Z,96871.59
2019-04-28T12:36:21.577Z,96870.16
2019-04-28T12:38:52.819Z,96873.50
2019-04-28T12:41:23.919Z,96871.86
2019-04-28T12:43:55.241Z,96872.77
2019-04-28T12:46:26.346Z,96869.33
2019-04-28T12:49:00.977Z,96865.66
2019-04-28T12:51:32.227Z,96860.63
2019-04-28T12:54:05.976Z,96863.82
2019-04-28T12:56:38.292Z,96853.28
2019-04-28T12:59:16.188Z,96858.11
2019-04-28T13:01:55.944Z,96851.08
2019-04-28T13:04:39.703Z,96851.08
2019-04-28T13:07:10.990Z,96841.20
2019-04-28T13:09:42.042Z,96844.38
2019-04-28T13:12:13.373Z,96838.85
2019-04-28T13:14:44.695Z,96838.56
2019-04-28T13:17:16.152Z,96839.80
2019-04-28T13:19:48.284Z,96839.97
2019-04-28T13:22:19.404Z,96828.59
2019-04-28T13:24:50.820Z,96830.09
2019-04-28T13:27:22.001Z,96826.96
2019-04-28T13:29:53.110Z,96826.82
2019-04-28T13:32:24.149Z,96823.33
2019-04-28T13:34:55.497Z,96820.57
2019-04-28T13:37:26.642Z,96813.47
2019-04-28T13:40:01.896Z,96819.14
2019-04-28T13:42:33.072Z,96807.93
2019-04-28T13:45:08.966Z,96803.18
2019-04-28T13:47:40.551Z,96799.84
2019-04-28T13:50:16.889Z,96794.70
2019-04-28T13:52:48.007Z,96796.59
2019-04-28T13:55:37.086Z,96794.91
2019-04-28T13:58:08.662Z,96792.63
2019-04-28T14:01:07.757Z,96789.70
2019-04-28T14:04:03.937Z,96787.48
2019-04-28T14:06:41.240Z,96782.74
2019-04-28T14:09:16.774Z,96781.09
2019-04-28T14:11:48.235Z,96777.44
2019-04-28T14:14:19.206Z,96776.42
2019-04-28T14:16:50.238Z,96773.32
2019-04-28T14:19:21.525Z,96772.72
2019-04-28T14:21:52.631Z,96771.83
2019-04-28T14:24:23.742Z,96772.15
2019-04-28T14:26:55.103Z,96771.41
2019-04-28T14:29:26.111Z,96769.35
2019-04-28T14:31:58.536Z,96764.50
2019-04-28T14:34:29.617Z,96763.55
2019-04-28T14:37:00.796Z,96761.26
2019-04-28T14:39:31.803Z,96765.59
2019-04-28T14:42:02.810Z,96767.08
2019-04-28T14:44:33.809Z,96759.23
2019-04-28T14:47:05.864Z,96762.16
2019-04-28T14:49:37.103Z,96758.28
2019-04-28T14:52:08.621Z,96765.39
2019-04-28T14:54:39.638Z,96765.23
2019-04-28T14:57:10.791Z,96766.88
2019-04-28T14:59:41.797Z,96766.41
2019-04-28T15:02:30.719Z,96769.52
2019-04-28T15:05:24.232Z,96767.30
2019-04-28T15:08:20.375Z,96778.59
2019-04-28T15:11:02.695Z,96782.41
2019-04-28T15:13:33.696Z,96777.42
2019-04-28T15:16:05.054Z,96771.05
2019-04-28T15:18:36.138Z,96775.22
2019-04-28T15:21:07.247Z,96782.00
2019-04-28T15:23:38.848Z,96774.95
2019-04-28T15:26:09.946Z,96776.33
2019-04-28T15:28:40.960Z,96775.73
2019-04-28T15:31:11.968Z,96773.30
2019-04-28T15:33:43.098Z,96778.08
2019-04-28T15:36:14.265Z,96779.93
2019-04-28T15:38:45.269Z,96782.73
2019-04-28T15:41:21.866Z,96785.88
2019-04-28T15:43:49.308Z,96782.26
2019-04-28T15:46:20.310Z,96786.83
2019-04-28T15:48:51.409Z,96784.04
2019-04-28T15:51:22.526Z,96780.97
2019-04-28T15:53:53.567Z,96786.38
2019-04-28T15:56:36.305Z,96782.15
2019-04-28T15:59:08.488Z,96781.98
2019-04-28T16:01:39.486Z,96781.55
2019-04-28T16:04:10.558Z,96783.23
2019-04-28T16:06:41.548Z,96786.55
2019-04-28T16:09:13.724Z,96785.95
2019-04-28T16:11:45.263Z,96779.13
2019-04-28T16:14:16.678Z,96780.70
2019-04-28T16:16:47.906Z,96785.73
2019-04-28T16:19:18.924Z,96790.67
2019-04-28T16:21:49.928Z,96787.81
2019-04-28T16:24:22.710Z,96792.34
2019-04-28T16:26:53.831Z,96792.87
2019-04-28T16:29:25.142Z,96794.52
2019-04-28T16:31:56.237Z,96797.21
2019-04-28T16:34:27.440Z,96795.53
2019-04-28T16:36:58.441Z,96795.81
2019-04-28T16:39:29.531Z,96797.06
2019-04-28T16:42:00.928Z,96803.60
2019-04-28T16:44:31.941Z,96801.73
2019-04-28T16:47:02.938Z,96805.20
2019-04-28T16:49:34.024Z,96798.05
2019-04-28T16:52:05.044Z,96801.16
2019-04-28T16:54:36.059Z,96802.38
2019-04-28T16:57:26.023Z,96803.33
2019-04-28T17:00:10.715Z,96803.75
2019-04-28T17:02:45.661Z,96810.06
2019-04-28T17:05:17.679Z,96808.56
2019-04-28T17:07:53.157Z,96815.28
2019-04-28T17:10:22.105Z,96819.41
2019-04-28T17:12:53.286Z,96819.03
2019-04-28T17:15:24.346Z,96827.38
2019-04-28T17:17:55.539Z,96829.46
2019-04-28T17:20:26.694Z,96834.02
2019-04-28T17:22:58.108Z,96834.69
2019-04-28T17:25:29.115Z,96839.75
2019-04-28T17:28:00.171Z,96838.28
2019-04-28T17:30:31.761Z,96841.16
2019-04-28T17:33:02.849Z,96839.27
2019-04-28T17:35:34.346Z,96843.34
2019-04-28T17:38:06.830Z,96840.00
2019-04-28T17:40:39.137Z,96845.69
2019-04-28T17:43:10.337Z,96843.88
2019-04-28T17:45:41.454Z,96848.77
2019-04-28T17:48:18.758Z,96843.61
2019-04-28T17:50:50.134Z,96848.83
2019-04-28T17:53:22.255Z,96843.84
2019-04-28T17:55:54.210Z,96849.94
2019-04-28T17:58:25.552Z,96858.34
2019-04-28T18:01:24.672Z,96856.91
2019-04-28T18:04:06.777Z,96861.42
2019-04-28T18:06:41.211Z,96867.41
2019-04-28T18:09:12.678Z,96871.25
2019-04-28T18:11:43.747Z,96873.38
2019-04-28T18:14:14.904Z,96871.64
2019-04-28T18:17:04.981Z,96886.06
2019-04-28T18:19:36.225Z,96887.88
2019-04-28T18:22:07.596Z,96892.27
2019-04-28T18:24:40.102Z,96894.38
2019-04-28T18:27:12.322Z,96897.44
2019-04-28T18:29:43.432Z,96904.63
2019-04-28T18:32:29.590Z,96912.13
2019-04-28T18:35:12.774Z,96914.05
2019-04-28T18:38:03.116Z,96920.73
2019-04-28T18:40:56.185Z,96915.88
2019-04-28T18:44:01.096Z,96919.02
2019-04-28T18:46:32.091Z,96930.78
2019-04-28T18:49:03.182Z,96928.46
2019-04-28T18:51:34.273Z,96934.64
2019-04-28T18:54:05.616Z,96939.47
2019-04-28T18:56:36.580Z,96947.91
2019-04-28T18:59:07.661Z,96946.37
2019-04-28T19:01:51.341Z,96949.12
2019-04-28T19:04:22.409Z,96947.78
2019-04-28T19:07:04.379Z,96952.56
2019-04-28T19:09:44.034Z,96962.08
2019-04-28T19:12:27.897Z,96957.84
2019-04-28T19:15:18.199Z,96970.59
2019-04-28T19:17:56.099Z,96970.09
2019-04-28T19:20:27.131Z,96973.55
2019-04-28T19:22:58.144Z,96975.55
2019-04-28T19:25:29.336Z,96982.86
2019-04-28T19:28:00.640Z,96985.59
2019-04-28T19:30:31.794Z,96985.99
2019-04-28T19:33:03.171Z,96992.38
2019-04-28T19:35:34.438Z,96989.84
2019-04-28T19:38:05.664Z,96993.27
2019-04-28T19:40:36.723Z,96998.23
2019-04-28T19:43:07.808Z,96999.36
2019-04-28T19:45:40.995Z,97002.61
2019-04-28T19:48:12.069Z,97009.80
2019-04-28T19:50:43.200Z,97003.11
2019-04-28T19:53:14.366Z,97006.95
2019-04-28T19:55:52.414Z,97005.11
2019-04-28T19:58:30.233Z,97000.47
2019-04-28T20:01:06.171Z,97000.77
2019-04-28T20:03:37.236Z,97000.55
2019-04-28T20:06:09.684Z,97001.88
2019-04-28T20:08:40.975Z,96999.73
2019-04-28T20:11:11.991Z,96998.02
2019-04-28T20:13:43.002Z,97001.14
2019-04-28T20:16:14.241Z,97002.46
2019-04-28T20:18:48.653Z,97004.16
2019-04-28T20:21:18.257Z,97000.12
2019-04-28T20:23:49.278Z,97006.20
2019-04-28T20:26:20.613Z,97011.48
2019-04-28T20:28:51.622Z,97011.66
2019-04-28T20:31:23.636Z,97010.83
2019-04-28T20:33:54.691Z,97011.47
2019-04-28T20:36:39.212Z,97014.97
2019-04-28T20:39:14.786Z,97013.86
2019-04-28T20:41:47.414Z,97017.90
2019-04-28T20:44:18.792Z,97014.76
2019-04-28T20:46:50.065Z,97012.32
2019-04-28T20:49:21.058Z,97008.56
2019-04-28T20:51:52.066Z,97010.36
2019-04-28T20:54:23.055Z,97009.38
2019-04-28T20:56:54.315Z,97011.48
2019-04-28T20:59:25.356Z,97016.42
2019-04-28T21:01:57.114Z,97013.55
2019-04-28T21:04:28.138Z,97009.27
2019-04-28T21:06:59.241Z,97014.04
2019-04-28T21:09:30.239Z,97016.41
2019-04-28T21:12:01.315Z,97024.98
2019-04-28T21:14:33.031Z,97019.94
2019-04-28T21:17:04.080Z,97017.01
2019-04-28T21:19:35.406Z,97021.97
2019-04-28T21:22:06.584Z,97029.28
2019-04-28T21:24:37.659Z,97031.27
2019-04-28T21:27:09.569Z,97027.69
2019-04-28T21:29:40.934Z,97033.14
2019-04-28T21:32:11.956Z,97035.31
2019-04-28T21:34:43.257Z,97031.00
2019-04-28T21:37:14.268Z,97031.44
2019-04-28T21:39:45.403Z,97031.72
2019-04-28T21:42:19.515Z,97032.40
2019-04-28T21:45:08.342Z,97037.44
2019-04-28T21:47:39.680Z,97034.42
2019-04-28T21:50:12.278Z,97032.94
2019-04-28T21:52:43.286Z,97040.14
2019-04-28T21:55:14.275Z,97046.94
2019-04-28T21:57:47.231Z,97039.98
2019-04-28T22:00:23.804Z,97041.52
2019-04-28T22:03:12.746Z,97043.03
2019-04-28T22:05:43.758Z,97042.53
2019-04-28T22:08:14.785Z,97044.59
2019-04-28T22:10:45.884Z,97047.49
2019-04-28T22:13:16.987Z,97042.39
2019-04-28T22:15:48.019Z,97040.36
2019-04-28T22:18:19.049Z,97039.39
2019-04-28T22:20:50.053Z,97045.73
2019-04-28T22:23:26.972Z,97038.89
2019-04-28T22:25:57.977Z,97038.78
2019-04-28T22:28:29.393Z,97042.28
2019-04-28T22:31:00.517Z,97039.84
2019-04-28T22:33:31.532Z,97036.20
2019-04-28T22:36:02.543Z,97045.21
2019-04-28T22:38:34.242Z,97046.38
2019-04-28T22:41:05.387Z,97049.08
2019-04-28T22:43:36.397Z,97051.48
2019-04-28T22:46:07.806Z,97049.42
2019-04-28T22:48:39.780Z,97049.38
2019-04-28T22:51:10.787Z,97044.84
2019-04-28T22:53:42.076Z,97050.80
2019-04-28T22:56:31.074Z,97045.93
2019-04-28T22:59:06.989Z,97050.73
2019-04-28T23:01:43.593Z,97058.06
2019-04-28T23:04:25.098Z,97054.34
2019-04-28T23:06:56.711Z,97053.44
2019-04-28T23:09:27.896Z,97053.97
2019-04-28T23:11:59.263Z,97059.70
2019-04-28T23:14:30.342Z,97060.80
2019-04-28T23:17:01.514Z,97066.61
2019-04-28T23:19:35.151Z,97064.48
2019-04-28T23:22:28.061Z,97063.61
2019-04-28T23:24:59.529Z,97064.20
2019-04-28T23:27:30.526Z,97062.55
2019-04-28T23:30:01.590Z,97063.01
2019-04-28T23:32:32.906Z,97063.76
2019-04-28T23:35:04.801Z,97063.38
2019-04-28T23:37:35.906Z,97066.72
2019-04-28T23:40:08.368Z,97060.96
2019-04-28T23:42:52.590Z,97054.91
2019-04-28T23:45:23.699Z,97054.77
2019-04-28T23:47:54.714Z,97053.86
2019-04-28T23:50:32.653Z,97057.97
2019-04-28T23:53:07.221Z,97055.75
2019-04-28T23:55:38.236Z,97060.73
2019-04-28T23:58:10.035Z,97058.25
